sensor_id;sensor_type;location;lat;lon;timestamp;pressure;altitude;pressure_sealevel;temperature;humidity
64368;BME280;50692;53.314;-6.300;2023-03-04T00:02:19;103043.91;;;7.69;71.35
64368;BME280;50692;53.314;-6.300;2023-03-04T00:05:05;103031.63;;;7.70;71.44
64368;BME280;50692;53.314;-6.300;2023-03-04T00:07:51;103032.50;;;7.69;71.53
64368;BME280;50692;53.314;-6.300;2023-03-04T00:10:43;103015.81;;;7.72;71.33
64368;BME280;50692;53.314;-6.300;2023-03-04T00:13:29;103017.56;;;7.73;71.10
64368;BME280;50692;53.314;-6.300;2023-03-04T00:16:15;103009.69;;;7.68;71.49
64368;BME280;50692;53.314;-6.300;2023-03-04T00:19:01;103010.56;;;7.68;71.56
64368;BME280;50692;53.314;-6.300;2023-03-04T00:21:47;102994.81;;;7.59;71.21
64368;BME280;50692;53.314;-6.300;2023-03-04T00:24:32;103009.72;;;7.63;71.39
64368;BME280;50692;53.314;-6.300;2023-03-04T00:27:19;103008.81;;;7.67;71.03
64368;BME280;50692;53.314;-6.300;2023-03-04T00:30:06;103009.72;;;7.66;71.33
64368;BME280;50692;53.314;-6.300;2023-03-04T00:32:52;103010.59;;;7.67;71.47
64368;BME280;50692;53.314;-6.300;2023-03-04T00:35:38;103011.47;;;7.64;71.74
64368;BME280;50692;53.314;-6.300;2023-03-04T00:38:26;103014.97;;;7.66;71.83
64368;BME280;50692;53.314;-6.300;2023-03-04T00:41:13;103008.81;;;7.67;71.87
64368;BME280;50692;53.314;-6.300;2023-03-04T00:43:58;103003.53;;;7.66;71.72
64368;BME280;50692;53.314;-6.300;2023-03-04T00:46:44;103007.03;;;7.69;71.31
64368;BME280;50692;53.314;-6.300;2023-03-04T00:49:30;103001.78;;;7.68;71.27
64368;BME280;50692;53.314;-6.300;2023-03-04T00:52:16;102982.50;;;7.61;71.26
64368;BME280;50692;53.314;-6.300;2023-03-04T00:55:02;102998.31;;;7.64;70.91
64368;BME280;50692;53.314;-6.300;2023-03-04T00:57:48;102979.91;;;7.55;71.08
64368;BME280;50692;53.314;-6.300;2023-03-04T01:00:34;102993.94;;;7.63;71.14
64368;BME280;50692;53.314;-6.300;2023-03-04T01:03:19;102999.19;;;7.60;71.10
64368;BME280;50692;53.314;-6.300;2023-03-04T01:06:05;103005.34;;;7.59;71.19
64368;BME280;50692;53.314;-6.300;2023-03-04T01:08:51;102999.22;;;7.57;71.86
64368;BME280;50692;53.314;-6.300;2023-03-04T01:11:37;102994.84;;;7.53;72.02
64368;BME280;50692;53.314;-6.300;2023-03-04T01:14:23;102991.34;;;7.50;72.19
64368;BME280;50692;53.314;-6.300;2023-03-04T01:17:09;103001.84;;;7.51;72.37
64368;BME280;50692;53.314;-6.300;2023-03-04T01:19:56;103008.00;;;7.47;72.35
64368;BME280;50692;53.314;-6.300;2023-03-04T01:22:42;103008.00;;;7.50;72.34
64368;BME280;50692;53.314;-6.300;2023-03-04T01:25:28;103005.34;;;7.52;72.39
64368;BME280;50692;53.314;-6.300;2023-03-04T01:28:14;102999.28;;;7.45;72.16
64368;BME280;50692;53.314;-6.300;2023-03-04T01:31:00;103013.25;;;7.56;72.19
64368;BME280;50692;53.314;-6.300;2023-03-04T01:33:46;103021.16;;;7.56;72.17
64368;BME280;50692;53.314;-6.300;2023-03-04T01:36:32;103017.63;;;7.57;72.04
64368;BME280;50692;53.314;-6.300;2023-03-04T01:39:18;102991.38;;;7.45;72.07
64368;BME280;50692;53.314;-6.300;2023-03-04T01:42:04;103014.13;;;7.54;72.26
64368;BME280;50692;53.314;-6.300;2023-03-04T01:44:51;103013.25;;;7.53;72.39
64368;BME280;50692;53.314;-6.300;2023-03-04T01:47:37;103011.53;;;7.49;72.10
64368;BME280;50692;53.314;-6.300;2023-03-04T01:50:29;103011.50;;;7.51;71.81
64368;BME280;50692;53.314;-6.300;2023-03-04T01:53:20;103000.97;;;7.51;71.78
64368;BME280;50692;53.314;-6.300;2023-03-04T01:56:28;102996.56;;;7.57;71.73
64368;BME280;50692;53.314;-6.300;2023-03-04T01:59:15;102998.31;;;7.60;71.31
64368;BME280;50692;53.314;-6.300;2023-03-04T02:02:01;102993.06;;;7.63;70.91
64368;BME280;50692;53.314;-6.300;2023-03-04T02:04:47;102982.50;;;7.64;70.71
64368;BME280;50692;53.314;-6.300;2023-03-04T02:07:33;102980.78;;;7.60;70.39
64368;BME280;50692;53.314;-6.300;2023-03-04T02:10:19;102993.03;;;7.64;70.19
64368;BME280;50692;53.314;-6.300;2023-03-04T02:13:05;102985.19;;;7.57;69.50
64368;BME280;50692;53.314;-6.300;2023-03-04T02:15:51;102987.78;;;7.58;69.18
64368;BME280;50692;53.314;-6.300;2023-03-04T02:18:37;102989.53;;;7.61;68.74
64368;BME280;50692;53.314;-6.300;2023-03-04T02:21:25;102988.66;;;7.62;68.44
64368;BME280;50692;53.314;-6.300;2023-03-04T02:24:16;102984.25;;;7.65;68.49
64368;BME280;50692;53.314;-6.300;2023-03-04T02:27:04;102983.38;;;7.65;68.16
64368;BME280;50692;53.314;-6.300;2023-03-04T02:29:50;102973.72;;;7.65;68.28
64368;BME280;50692;53.314;-6.300;2023-03-04T02:32:36;102970.25;;;7.57;68.25
64368;BME280;50692;53.314;-6.300;2023-03-04T02:35:21;102975.50;;;7.63;68.36
64368;BME280;50692;53.314;-6.300;2023-03-04T02:38:09;102980.75;;;7.62;68.09
64368;BME280;50692;53.314;-6.300;2023-03-04T02:40:56;102930.03;;;7.28;67.63
64368;BME280;50692;53.314;-6.300;2023-03-04T02:43:44;102979.03;;;7.56;67.68
64368;BME280;50692;53.314;-6.300;2023-03-04T02:46:31;102976.41;;;7.52;67.82
64368;BME280;50692;53.314;-6.300;2023-03-04T02:49:18;102972.06;;;7.49;67.61
64368;BME280;50692;53.314;-6.300;2023-03-04T02:52:17;102973.78;;;7.50;67.32
64368;BME280;50692;53.314;-6.300;2023-03-04T02:55:04;102979.06;;;7.47;67.48
64368;BME280;50692;53.314;-6.300;2023-03-04T02:57:50;102974.66;;;7.48;67.53
64368;BME280;50692;53.314;-6.300;2023-03-04T03:00:36;102977.31;;;7.44;67.77
64368;BME280;50692;53.314;-6.300;2023-03-04T03:03:21;102979.06;;;7.47;67.68
64368;BME280;50692;53.314;-6.300;2023-03-04T03:06:08;102972.94;;;7.47;67.83
64368;BME280;50692;53.314;-6.300;2023-03-04T03:08:53;102971.16;;;7.47;67.86
64368;BME280;50692;53.314;-6.300;2023-03-04T03:11:39;102967.66;;;7.47;67.88
64368;BME280;50692;53.314;-6.300;2023-03-04T03:14:25;102974.69;;;7.44;67.64
64368;BME280;50692;53.314;-6.300;2023-03-04T03:17:11;102977.34;;;7.40;67.79
64368;BME280;50692;53.314;-6.300;2023-03-04T03:19:57;102981.72;;;7.39;67.75
64368;BME280;50692;53.314;-6.300;2023-03-04T03:22:43;102973.84;;;7.39;68.25
64368;BME280;50692;53.314;-6.300;2023-03-04T03:25:28;102970.31;;;7.42;67.88
64368;BME280;50692;53.314;-6.300;2023-03-04T03:28:14;102969.44;;;7.37;67.81
64368;BME280;50692;53.314;-6.300;2023-03-04T03:31:00;102973.88;;;7.32;68.25
64368;BME280;50692;53.314;-6.300;2023-03-04T03:33:46;102968.63;;;7.26;68.41
64368;BME280;50692;53.314;-6.300;2023-03-04T03:36:31;102962.50;;;7.17;68.55
64368;BME280;50692;53.314;-6.300;2023-03-04T03:39:18;102967.78;;;7.13;68.59
64368;BME280;50692;53.314;-6.300;2023-03-04T03:42:04;102962.53;;;7.10;68.67
64368;BME280;50692;53.314;-6.300;2023-03-04T03:44:50;102939.75;;;6.98;68.73
64368;BME280;50692;53.314;-6.300;2023-03-04T03:47:36;102963.41;;;7.01;69.03
64368;BME280;50692;53.314;-6.300;2023-03-04T03:50:22;102961.69;;;6.97;69.03
64368;BME280;50692;53.314;-6.300;2023-03-04T03:53:08;102960.78;;;6.98;68.99
64368;BME280;50692;53.314;-6.300;2023-03-04T03:55:53;102952.88;;;7.04;69.01
64368;BME280;50692;53.314;-6.300;2023-03-04T03:58:39;102959.88;;;7.08;68.85
64368;BME280;50692;53.314;-6.300;2023-03-04T04:01:25;102968.66;;;7.10;68.67
64368;BME280;50692;53.314;-6.300;2023-03-04T04:04:11;102965.16;;;7.14;68.85
64368;BME280;50692;53.314;-6.300;2023-03-04T04:06:57;102954.63;;;7.14;68.87
64368;BME280;50692;53.314;-6.300;2023-03-04T04:09:43;102959.00;;;7.17;68.92
64368;BME280;50692;53.314;-6.300;2023-03-04T04:12:29;102958.13;;;7.15;68.90
64368;BME280;50692;53.314;-6.300;2023-03-04T04:15:14;102964.28;;;7.09;68.92
64368;BME280;50692;53.314;-6.300;2023-03-04T04:18:01;102960.78;;;7.10;68.85
64368;BME280;50692;53.314;-6.300;2023-03-04T04:20:46;102958.16;;;7.06;68.74
64368;BME280;50692;53.314;-6.300;2023-03-04T04:23:32;102958.16;;;7.03;68.70
64368;BME280;50692;53.314;-6.300;2023-03-04T04:26:18;102958.16;;;7.07;68.58
64368;BME280;50692;53.314;-6.300;2023-03-04T04:29:05;102940.63;;;6.94;68.33
64368;BME280;50692;53.314;-6.300;2023-03-04T04:31:50;102966.06;;;7.00;68.10
64368;BME280;50692;53.314;-6.300;2023-03-04T04:34:36;102961.66;;;7.00;68.24
64368;BME280;50692;53.314;-6.300;2023-03-04T04:37:22;102966.94;;;7.00;67.98
64368;BME280;50692;53.314;-6.300;2023-03-04T04:40:08;102965.19;;;7.01;68.19
64368;BME280;50692;53.314;-6.300;2023-03-04T04:42:54;102962.53;;;6.94;68.25
64368;BME280;50692;53.314;-6.300;2023-03-04T04:45:40;102973.09;;;6.88;68.23
64368;BME280;50692;53.314;-6.300;2023-03-04T04:48:26;102968.72;;;6.92;68.08
64368;BME280;50692;53.314;-6.300;2023-03-04T04:51:12;102972.19;;;6.94;68.03
64368;BME280;50692;53.314;-6.300;2023-03-04T04:53:59;102973.06;;;6.97;67.91
64368;BME280;50692;53.314;-6.300;2023-03-04T04:56:45;102964.31;;;6.97;67.69
64368;BME280;50692;53.314;-6.300;2023-03-04T04:59:31;102966.09;;;6.95;67.59
64368;BME280;50692;53.314;-6.300;2023-03-04T05:02:16;102964.31;;;6.95;67.82
64368;BME280;50692;53.314;-6.300;2023-03-04T05:05:04;102959.94;;;6.93;67.82
64368;BME280;50692;53.314;-6.300;2023-03-04T05:07:50;102968.72;;;6.95;67.92
64368;BME280;50692;53.314;-6.300;2023-03-04T05:10:36;102968.69;;;6.98;67.99
64368;BME280;50692;53.314;-6.300;2023-03-04T05:13:22;102940.66;;;6.83;67.76
64368;BME280;50692;53.314;-6.300;2023-03-04T05:16:08;102953.78;;;6.91;68.15
64368;BME280;50692;53.314;-6.300;2023-03-04T05:18:54;102973.09;;;6.99;67.90
64368;BME280;50692;53.314;-6.300;2023-03-04T05:21:40;102973.09;;;6.93;67.66
64368;BME280;50692;53.314;-6.300;2023-03-04T05:24:26;102968.72;;;6.81;67.83
64368;BME280;50692;53.314;-6.300;2023-03-04T05:27:11;102978.34;;;6.84;67.80
64368;BME280;50692;53.314;-6.300;2023-03-04T05:29:57;102973.97;;;6.80;67.76
64368;BME280;50692;53.314;-6.300;2023-03-04T05:32:46;102977.47;;;6.76;67.47
64368;BME280;50692;53.314;-6.300;2023-03-04T05:35:31;102988.00;;;6.68;67.43
64368;BME280;50692;53.314;-6.300;2023-03-04T05:38:18;102986.25;;;6.62;67.70
64368;BME280;50692;53.314;-6.300;2023-03-04T05:41:05;102982.75;;;6.66;67.71
64368;BME280;50692;53.314;-6.300;2023-03-04T05:43:51;102988.91;;;6.70;67.57
64368;BME280;50692;53.314;-6.300;2023-03-04T05:46:37;102989.75;;;6.67;67.60
64368;BME280;50692;53.314;-6.300;2023-03-04T05:49:23;102983.63;;;6.71;67.66
64368;BME280;50692;53.314;-6.300;2023-03-04T05:52:09;102980.13;;;6.74;67.56
64368;BME280;50692;53.314;-6.300;2023-03-04T05:54:55;102980.09;;;6.79;67.48
64368;BME280;50692;53.314;-6.300;2023-03-04T05:57:41;102977.50;;;6.82;67.34
64368;BME280;50692;53.314;-6.300;2023-03-04T06:00:27;102978.34;;;6.79;67.51
64368;BME280;50692;53.314;-6.300;2023-03-04T06:03:18;102988.88;;;6.79;67.46
64368;BME280;50692;53.314;-6.300;2023-03-04T06:06:05;102981.00;;;6.70;67.24
64368;BME280;50692;53.314;-6.300;2023-03-04T06:08:51;102981.00;;;6.71;67.43
64368;BME280;50692;53.314;-6.300;2023-03-04T06:11:37;102980.97;;;6.73;67.43
64368;BME280;50692;53.314;-6.300;2023-03-04T06:14:22;102993.25;;;6.79;67.50
64368;BME280;50692;53.314;-6.300;2023-03-04T06:17:08;102990.63;;;6.79;67.32
64368;BME280;50692;53.314;-6.300;2023-03-04T06:19:54;102989.75;;;6.80;67.32
64368;BME280;50692;53.314;-6.300;2023-03-04T06:22:40;102989.75;;;6.75;67.40
64368;BME280;50692;53.314;-6.300;2023-03-04T06:25:26;103003.75;;;6.72;67.40
64368;BME280;50692;53.314;-6.300;2023-03-04T06:28:12;103000.25;;;6.77;67.51
64368;BME280;50692;53.314;-6.300;2023-03-04T06:30:58;103001.16;;;6.79;67.20
64368;BME280;50692;53.314;-6.300;2023-03-04T06:33:44;102946.84;;;6.50;67.33
64368;BME280;50692;53.314;-6.300;2023-03-04T06:36:30;102992.38;;;6.77;67.07
64368;BME280;50692;53.314;-6.300;2023-03-04T06:39:16;102992.41;;;6.73;67.04
64368;BME280;50692;53.314;-6.300;2023-03-04T06:42:02;102995.00;;;6.72;67.08
64368;BME280;50692;53.314;-6.300;2023-03-04T06:44:48;102988.88;;;6.67;67.23
64368;BME280;50692;53.314;-6.300;2023-03-04T06:47:34;103000.28;;;6.70;66.97
64368;BME280;50692;53.314;-6.300;2023-03-04T06:50:20;102996.75;;;6.71;67.12
64368;BME280;50692;53.314;-6.300;2023-03-04T06:53:06;103001.13;;;6.76;67.06
64368;BME280;50692;53.314;-6.300;2023-03-04T06:55:51;102996.75;;;6.71;66.87
64368;BME280;50692;53.314;-6.300;2023-03-04T06:58:37;103007.28;;;6.75;66.78
64368;BME280;50692;53.314;-6.300;2023-03-04T07:01:27;103004.66;;;6.75;66.74
64368;BME280;50692;53.314;-6.300;2023-03-04T07:04:13;102991.50;;;6.73;66.85
64368;BME280;50692;53.314;-6.300;2023-03-04T07:06:59;102998.53;;;6.74;66.68
64368;BME280;50692;53.314;-6.300;2023-03-04T07:09:45;102997.63;;;6.72;66.53
64368;BME280;50692;53.314;-6.300;2023-03-04T07:12:30;102993.25;;;6.72;66.61
64368;BME280;50692;53.314;-6.300;2023-03-04T07:15:16;102992.38;;;6.75;66.70
64368;BME280;50692;53.314;-6.300;2023-03-04T07:18:02;103002.03;;;6.78;66.38
64368;BME280;50692;53.314;-6.300;2023-03-04T07:20:51;103001.13;;;6.80;66.21
64368;BME280;50692;53.314;-6.300;2023-03-04T07:23:37;103001.16;;;6.79;66.27
64368;BME280;50692;53.314;-6.300;2023-03-04T07:26:23;102998.50;;;6.76;66.68
64368;BME280;50692;53.314;-6.300;2023-03-04T07:29:11;102993.25;;;6.72;66.27
64368;BME280;50692;53.314;-6.300;2023-03-04T07:31:57;103002.91;;;6.75;66.42
64368;BME280;50692;53.314;-6.300;2023-03-04T07:34:43;103005.53;;;6.72;66.56
64368;BME280;50692;53.314;-6.300;2023-03-04T07:37:29;103009.03;;;6.72;66.67
64368;BME280;50692;53.314;-6.300;2023-03-04T07:40:15;103007.25;;;6.73;66.59
64368;BME280;50692;53.314;-6.300;2023-03-04T07:43:00;103009.03;;;6.72;66.30
64368;BME280;50692;53.314;-6.300;2023-03-04T07:45:46;103008.16;;;6.72;66.25
64368;BME280;50692;53.314;-6.300;2023-03-04T07:48:32;103007.25;;;6.73;66.14
64368;BME280;50692;53.314;-6.300;2023-03-04T07:51:20;103016.06;;;6.73;66.08
64368;BME280;50692;53.314;-6.300;2023-03-04T07:54:06;103008.16;;;6.69;65.93
64368;BME280;50692;53.314;-6.300;2023-03-04T07:56:52;103023.06;;;6.78;65.61
64368;BME280;50692;53.314;-6.300;2023-03-04T07:59:38;103019.56;;;6.82;65.51
64368;BME280;50692;53.314;-6.300;2023-03-04T08:02:24;103029.19;;;6.86;65.79
64368;BME280;50692;53.314;-6.300;2023-03-04T08:05:10;103016.94;;;6.88;65.70
64368;BME280;50692;53.314;-6.300;2023-03-04T08:07:55;103015.16;;;6.87;65.59
64368;BME280;50692;53.314;-6.300;2023-03-04T08:10:42;103026.53;;;6.87;65.38
64368;BME280;50692;53.314;-6.300;2023-03-04T08:13:29;103035.31;;;6.89;65.68
64368;BME280;50692;53.314;-6.300;2023-03-04T08:16:16;103025.69;;;6.88;65.68
64368;BME280;50692;53.314;-6.300;2023-03-04T08:19:03;103029.19;;;6.89;65.65
64368;BME280;50692;53.314;-6.300;2023-03-04T08:21:49;103037.97;;;6.88;65.41
64368;BME280;50692;53.314;-6.300;2023-03-04T08:24:35;103013.41;;;6.75;65.40
64368;BME280;50692;53.314;-6.300;2023-03-04T08:27:21;103047.56;;;6.90;65.30
64368;BME280;50692;53.314;-6.300;2023-03-04T08:30:08;103032.69;;;6.88;65.14
64368;BME280;50692;53.314;-6.300;2023-03-04T08:32:54;103038.81;;;6.94;65.17
64368;BME280;50692;53.314;-6.300;2023-03-04T08:35:39;103036.19;;;6.93;65.13
64368;BME280;50692;53.314;-6.300;2023-03-04T08:38:25;103020.41;;;6.93;64.89
64368;BME280;50692;53.314;-6.300;2023-03-04T08:41:12;103030.94;;;6.99;64.83
64368;BME280;50692;53.314;-6.300;2023-03-04T08:43:59;103035.31;;;6.99;64.70
64368;BME280;50692;53.314;-6.300;2023-03-04T08:46:45;103027.41;;;7.03;64.72
64368;BME280;50692;53.314;-6.300;2023-03-04T08:49:31;103031.78;;;7.07;64.24
64368;BME280;50692;53.314;-6.300;2023-03-04T08:52:17;103026.53;;;7.07;63.86
64368;BME280;50692;53.314;-6.300;2023-03-04T08:55:03;103024.78;;;7.06;63.87
64368;BME280;50692;53.314;-6.300;2023-03-04T08:57:49;103027.41;;;7.06;63.99
64368;BME280;50692;53.314;-6.300;2023-03-04T09:00:36;103028.28;;;7.08;64.02
64368;BME280;50692;53.314;-6.300;2023-03-04T09:03:22;103020.38;;;7.05;63.98
64368;BME280;50692;53.314;-6.300;2023-03-04T09:06:13;103022.13;;;7.11;64.15
64368;BME280;50692;53.314;-6.300;2023-03-04T09:08:59;103023.88;;;7.15;63.85
64368;BME280;50692;53.314;-6.300;2023-03-04T09:11:45;103012.50;;;7.11;63.53
64368;BME280;50692;53.314;-6.300;2023-03-04T09:14:31;103019.50;;;7.15;63.52
64368;BME280;50692;53.314;-6.300;2023-03-04T09:17:20;103025.63;;;7.14;63.79
64368;BME280;50692;53.314;-6.300;2023-03-04T09:20:08;103017.75;;;7.11;63.41
64368;BME280;50692;53.314;-6.300;2023-03-04T09:22:54;103027.41;;;7.11;63.35
64368;BME280;50692;53.314;-6.300;2023-03-04T09:25:41;103016.88;;;7.11;62.96
64368;BME280;50692;53.314;-6.300;2023-03-04T09:28:27;103033.53;;;7.16;62.66
64368;BME280;50692;53.314;-6.300;2023-03-04T09:31:13;103025.63;;;7.20;62.78
64368;BME280;50692;53.314;-6.300;2023-03-04T09:33:59;103025.63;;;7.25;62.70
64368;BME280;50692;53.314;-6.300;2023-03-04T09:36:45;103029.13;;;7.24;62.81
64368;BME280;50692;53.314;-6.300;2023-03-04T09:39:31;103022.13;;;7.20;62.80
64368;BME280;50692;53.314;-6.300;2023-03-04T09:42:24;103030.91;;;7.20;62.96
64368;BME280;50692;53.314;-6.300;2023-03-04T09:45:16;103026.50;;;7.19;62.07
64368;BME280;50692;53.314;-6.300;2023-03-04T09:48:04;103026.53;;;7.16;62.29
64368;BME280;50692;53.314;-6.300;2023-03-04T09:51:20;103036.13;;;7.30;62.25
64368;BME280;50692;53.314;-6.300;2023-03-04T09:54:07;103037.00;;;7.32;62.10
64368;BME280;50692;53.314;-6.300;2023-03-04T09:57:16;103034.34;;;7.39;62.04
64368;BME280;50692;53.314;-6.300;2023-03-04T10:00:23;103037.00;;;7.38;61.98
64368;BME280;50692;53.314;-6.300;2023-03-04T10:06:30;103037.00;;;7.38;61.58
64368;BME280;50692;53.314;-6.300;2023-03-04T10:09:20;103032.63;;;7.32;61.79
64368;BME280;50692;53.314;-6.300;2023-03-04T10:12:14;103035.25;;;7.35;61.05
64368;BME280;50692;53.314;-6.300;2023-03-04T10:15:06;103030.84;;;7.43;61.52
64368;BME280;50692;53.314;-6.300;2023-03-04T10:18:13;103030.84;;;7.40;61.33
64368;BME280;50692;53.314;-6.300;2023-03-04T10:21:20;103022.94;;;7.45;61.49
64368;BME280;50692;53.314;-6.300;2023-03-04T10:24:28;103023.81;;;7.47;61.27
64368;BME280;50692;53.314;-6.300;2023-03-04T10:27:17;103018.53;;;7.50;61.04
64368;BME280;50692;53.314;-6.300;2023-03-04T10:30:05;103016.78;;;7.48;61.13
64368;BME280;50692;53.314;-6.300;2023-03-04T10:32:57;103022.03;;;7.54;60.83
64368;BME280;50692;53.314;-6.300;2023-03-04T10:35:54;103025.50;;;7.59;60.47
64368;BME280;50692;53.314;-6.300;2023-03-04T10:38:42;103010.63;;;7.59;60.48
64368;BME280;50692;53.314;-6.300;2023-03-04T10:41:29;103007.13;;;7.53;60.58
64368;BME280;50692;53.314;-6.300;2023-03-04T10:44:16;103012.34;;;7.63;60.58
64368;BME280;50692;53.314;-6.300;2023-03-04T10:47:08;103003.56;;;7.67;60.35
64368;BME280;50692;53.314;-6.300;2023-03-04T10:50:00;102996.50;;;7.69;60.42
64368;BME280;50692;53.314;-6.300;2023-03-04T10:52:48;102990.38;;;7.69;60.24
64368;BME280;50692;53.314;-6.300;2023-03-04T10:55:44;102981.63;;;7.67;59.68
64368;BME280;50692;53.314;-6.300;2023-03-04T10:58:29;102971.09;;;7.65;59.44
64368;BME280;50692;53.314;-6.300;2023-03-04T11:01:15;102987.69;;;7.77;58.89
64368;BME280;50692;53.314;-6.300;2023-03-04T11:04:22;102995.59;;;7.81;58.68
64368;BME280;50692;53.314;-6.300;2023-03-04T11:07:10;102984.19;;;7.76;58.22
64368;BME280;50692;53.314;-6.300;2023-03-04T11:10:07;102991.22;;;7.79;57.93
64368;BME280;50692;53.314;-6.300;2023-03-04T11:16:02;102984.22;;;7.75;57.70
64368;BME280;50692;53.314;-6.300;2023-03-04T11:18:55;102985.97;;;7.77;57.50
64368;BME280;50692;53.314;-6.300;2023-03-04T11:21:44;102987.72;;;7.78;57.53
64368;BME280;50692;53.314;-6.300;2023-03-04T11:24:33;102988.56;;;7.80;57.42
64368;BME280;50692;53.314;-6.300;2023-03-04T11:27:35;102978.03;;;7.85;57.06
64368;BME280;50692;53.314;-6.300;2023-03-04T11:30:28;102980.59;;;7.91;57.46
64368;BME280;50692;53.314;-6.300;2023-03-04T11:33:27;102984.13;;;7.87;57.00
64368;BME280;50692;53.314;-6.300;2023-03-04T11:39:04;102971.88;;;7.86;56.64
64368;BME280;50692;53.314;-6.300;2023-03-04T11:45:16;102970.94;;;7.93;56.56
64368;BME280;50692;53.314;-6.300;2023-03-04T11:48:22;102966.53;;;8.00;56.44
64368;BME280;50692;53.314;-6.300;2023-03-04T11:54:40;102962.97;;;8.02;56.32
64368;BME280;50692;53.314;-6.300;2023-03-04T12:07:08;102948.13;;;7.90;56.69
64368;BME280;50692;53.314;-6.300;2023-03-04T12:10:32;102954.25;;;7.91;56.32
64368;BME280;50692;53.314;-6.300;2023-03-04T12:26:01;102947.22;;;7.99;56.29
64368;BME280;50692;53.314;-6.300;2023-03-04T12:31:41;102942.88;;;7.89;55.66
64368;BME280;50692;53.314;-6.300;2023-03-04T12:34:37;102947.22;;;7.96;56.02
64368;BME280;50692;53.314;-6.300;2023-03-04T12:43:29;102937.47;;;8.06;55.63
64368;BME280;50692;53.314;-6.300;2023-03-04T12:46:34;102935.75;;;8.06;56.03
64368;BME280;50692;53.314;-6.300;2023-03-04T12:52:51;102925.13;;;8.15;55.78
64368;BME280;50692;53.314;-6.300;2023-03-04T12:55:44;102931.28;;;8.14;55.66
64368;BME280;50692;53.314;-6.300;2023-03-04T12:58:32;102921.59;;;8.18;55.64
64368;BME280;50692;53.314;-6.300;2023-03-04T13:01:28;102924.19;;;8.23;55.59
64368;BME280;50692;53.314;-6.300;2023-03-04T13:11:00;102897.75;;;8.35;55.71
64368;BME280;50692;53.314;-6.300;2023-03-04T13:14:03;102886.31;;;8.40;55.75
64368;BME280;50692;53.314;-6.300;2023-03-04T13:16:53;102885.34;;;8.48;55.71
64368;BME280;50692;53.314;-6.300;2023-03-04T13:19:56;102885.34;;;8.51;55.26
64368;BME280;50692;53.314;-6.300;2023-03-04T13:22:53;102879.13;;;8.56;55.12
64368;BME280;50692;53.314;-6.300;2023-03-04T13:25:45;102880.09;;;8.49;55.19
64368;BME280;50692;53.314;-6.300;2023-03-04T13:28:34;102878.31;;;8.48;55.32
64368;BME280;50692;53.314;-6.300;2023-03-04T13:31:23;102867.78;;;8.48;55.12
64368;BME280;50692;53.314;-6.300;2023-03-04T13:34:44;102859.03;;;8.46;54.96
64368;BME280;50692;53.314;-6.300;2023-03-04T13:37:31;102859.88;;;8.50;54.98
64368;BME280;50692;53.314;-6.300;2023-03-04T13:43:41;102845.75;;;8.52;54.87
64368;BME280;50692;53.314;-6.300;2023-03-04T13:46:29;102843.94;;;8.59;54.98
64368;BME280;50692;53.314;-6.300;2023-03-04T13:49:23;102840.44;;;8.60;54.86
64368;BME280;50692;53.314;-6.300;2023-03-04T13:52:39;102835.97;;;8.65;54.86
64368;BME280;50692;53.314;-6.300;2023-03-04T13:56:00;102840.34;;;8.66;54.60
64368;BME280;50692;53.314;-6.300;2023-03-04T13:58:50;102836.94;;;8.58;54.57
64368;BME280;50692;53.314;-6.300;2023-03-04T14:04:40;102838.72;;;8.54;54.21
64368;BME280;50692;53.314;-6.300;2023-03-04T14:12:59;102822.94;;;8.53;54.21
64368;BME280;50692;53.314;-6.300;2023-03-04T14:15:54;102814.19;;;8.48;54.17
64368;BME280;50692;53.314;-6.300;2023-03-04T14:18:40;102832.56;;;8.55;54.12
64368;BME280;50692;53.314;-6.300;2023-03-04T14:21:27;102823.00;;;8.45;54.00
64368;BME280;50692;53.314;-6.300;2023-03-04T14:24:16;102820.34;;;8.50;54.01
64368;BME280;50692;53.314;-6.300;2023-03-04T14:27:09;102816.75;;;8.55;53.98
64368;BME280;50692;53.314;-6.300;2023-03-04T14:29:58;102804.53;;;8.45;53.89
64368;BME280;50692;53.314;-6.300;2023-03-04T14:32:44;102809.69;;;8.56;53.94
64368;BME280;50692;53.314;-6.300;2023-03-04T14:35:30;102813.25;;;8.52;53.88
64368;BME280;50692;53.314;-6.300;2023-03-04T14:38:26;102812.41;;;8.53;54.01
64368;BME280;50692;53.314;-6.300;2023-03-04T14:41:19;102799.25;;;8.50;53.98
64368;BME280;50692;53.314;-6.300;2023-03-04T14:44:34;102804.50;;;8.53;54.02
64368;BME280;50692;53.314;-6.300;2023-03-04T14:47:43;102799.19;;;8.54;54.27
64368;BME280;50692;53.314;-6.300;2023-03-04T14:50:31;102794.75;;;8.58;54.10
64368;BME280;50692;53.314;-6.300;2023-03-04T14:53:21;102793.88;;;8.57;54.06
64368;BME280;50692;53.314;-6.300;2023-03-04T14:56:08;102787.03;;;8.41;53.81
64368;BME280;50692;53.314;-6.300;2023-03-04T14:58:56;102779.13;;;8.41;53.97
64368;BME280;50692;53.314;-6.300;2023-03-04T15:01:42;102786.97;;;8.47;54.08
64368;BME280;50692;53.314;-6.300;2023-03-04T15:04:30;102778.19;;;8.47;54.17
64368;BME280;50692;53.314;-6.300;2023-03-04T15:07:20;102778.28;;;8.39;54.13
64368;BME280;50692;53.314;-6.300;2023-03-04T15:10:09;102783.53;;;8.34;54.11
64368;BME280;50692;53.314;-6.300;2023-03-04T15:12:59;102782.66;;;8.34;54.25
64368;BME280;50692;53.314;-6.300;2023-03-04T15:15:46;102775.69;;;8.31;54.40
64368;BME280;50692;53.314;-6.300;2023-03-04T15:18:34;102785.31;;;8.38;54.66
64368;BME280;50692;53.314;-6.300;2023-03-04T15:24:08;102781.84;;;8.32;54.28
64368;BME280;50692;53.314;-6.300;2023-03-04T15:26:54;102778.31;;;8.30;54.50
64368;BME280;50692;53.314;-6.300;2023-03-04T15:29:40;102781.81;;;8.33;54.41
64368;BME280;50692;53.314;-6.300;2023-03-04T15:32:27;102772.16;;;8.32;54.58
64368;BME280;50692;53.314;-6.300;2023-03-04T15:35:15;102773.94;;;8.30;54.54
64368;BME280;50692;53.314;-6.300;2023-03-04T15:38:07;102776.56;;;8.30;54.57
64368;BME280;50692;53.314;-6.300;2023-03-04T15:40:54;102774.78;;;8.35;54.55
64368;BME280;50692;53.314;-6.300;2023-03-04T15:43:40;102766.84;;;8.35;54.57
64368;BME280;50692;53.314;-6.300;2023-03-04T15:46:26;102765.16;;;8.31;54.65
64368;BME280;50692;53.314;-6.300;2023-03-04T15:49:12;102764.28;;;8.29;54.73
64368;BME280;50692;53.314;-6.300;2023-03-04T15:51:58;102754.63;;;8.28;54.65
64368;BME280;50692;53.314;-6.300;2023-03-04T15:54:44;102753.78;;;8.28;54.47